sensor_id;sensor_type;location;lat;lon;timestamp;P1;durP1;ratioP1;P2;durP2;ratioP2
34317;SDS011;20582;52.196;20.952;2023-03-04T00:00:10;36.65;;;15.88;;
34317;SDS011;20582;52.196;20.952;2023-03-04T00:02:36;36.38;;;16.63;;
34317;SDS011;20582;52.196;20.952;2023-03-04T00:05:02;38.33;;;18.35;;
34317;SDS011;20582;52.196;20.952;2023-03-04T00:07:28;37.10;;;17.67;;
34317;SDS011;20582;52.196;20.952;2023-03-04T00:09:54;37.42;;;16.55;;
34317;SDS011;20582;52.196;20.952;2023-03-04T00:12:20;41.58;;;17.00;;
34317;SDS011;20582;52.196;20.952;2023-03-04T00:14:46;43.35;;;19.27;;
34317;SDS011;20582;52.196;20.952;2023-03-04T00:17:12;41.85;;;19.65;;
34317;SDS011;20582;52.196;20.952;2023-03-04T00:19:38;41.10;;;18.60;;
34317;SDS011;20582;52.196;20.952;2023-03-04T00:22:04;41.17;;;19.83;;
34317;SDS011;20582;52.196;20.952;2023-03-04T00:24:30;42.97;;;19.08;;
34317;SDS011;20582;52.196;20.952;2023-03-04T00:26:56;43.08;;;19.08;;
34317;SDS011;20582;52.196;20.952;2023-03-04T00:29:22;43.80;;;20.00;;
34317;SDS011;20582;52.196;20.952;2023-03-04T00:31:48;46.05;;;19.17;;
34317;SDS011;20582;52.196;20.952;2023-03-04T00:34:14;43.00;;;20.15;;
34317;SDS011;20582;52.196;20.952;2023-03-04T00:36:40;49.38;;;20.33;;
34317;SDS011;20582;52.196;20.952;2023-03-04T00:39:08;47.85;;;21.02;;
34317;SDS011;20582;52.196;20.952;2023-03-04T00:41:34;44.97;;;21.52;;
34317;SDS011;20582;52.196;20.952;2023-03-04T00:44:00;47.90;;;18.83;;
34317;SDS011;20582;52.196;20.952;2023-03-04T00:46:26;45.28;;;18.55;;
34317;SDS011;20582;52.196;20.952;2023-03-04T00:48:52;47.38;;;18.15;;
34317;SDS011;20582;52.196;20.952;2023-03-04T00:51:18;51.25;;;18.52;;
34317;SDS011;20582;52.196;20.952;2023-03-04T00:53:44;50.72;;;20.02;;
34317;SDS011;20582;52.196;20.952;2023-03-04T00:56:11;47.53;;;20.08;;
34317;SDS011;20582;52.196;20.952;2023-03-04T00:58:37;52.58;;;20.88;;
34317;SDS011;20582;52.196;20.952;2023-03-04T01:01:04;51.42;;;21.33;;
34317;SDS011;20582;52.196;20.952;2023-03-04T01:03:30;50.97;;;20.65;;
34317;SDS011;20582;52.196;20.952;2023-03-04T01:05:57;57.33;;;22.40;;
34317;SDS011;20582;52.196;20.952;2023-03-04T01:08:23;88.93;;;42.75;;
34317;SDS011;20582;52.196;20.952;2023-03-04T01:10:49;57.63;;;22.15;;
34317;SDS011;20582;52.196;20.952;2023-03-04T01:13:15;148.02;;;78.57;;
34317;SDS011;20582;52.196;20.952;2023-03-04T01:15:41;61.80;;;23.52;;
34317;SDS011;20582;52.196;20.952;2023-03-04T01:18:07;58.97;;;21.40;;
34317;SDS011;20582;52.196;20.952;2023-03-04T01:20:33;53.90;;;20.05;;
34317;SDS011;20582;52.196;20.952;2023-03-04T01:22:59;50.78;;;21.58;;
34317;SDS011;20582;52.196;20.952;2023-03-04T01:25:25;52.47;;;20.70;;
34317;SDS011;20582;52.196;20.952;2023-03-04T01:27:51;55.28;;;20.88;;
34317;SDS011;20582;52.196;20.952;2023-03-04T01:30:17;58.30;;;20.88;;
34317;SDS011;20582;52.196;20.952;2023-03-04T01:32:43;55.30;;;21.48;;
34317;SDS011;20582;52.196;20.952;2023-03-04T01:35:09;56.60;;;20.38;;
34317;SDS011;20582;52.196;20.952;2023-03-04T01:37:35;55.33;;;22.10;;
34317;SDS011;20582;52.196;20.952;2023-03-04T01:40:01;52.63;;;20.75;;
34317;SDS011;20582;52.196;20.952;2023-03-04T01:42:29;50.28;;;19.70;;
34317;SDS011;20582;52.196;20.952;2023-03-04T01:44:55;51.40;;;21.52;;
34317;SDS011;20582;52.196;20.952;2023-03-04T01:47:21;54.63;;;20.27;;
34317;SDS011;20582;52.196;20.952;2023-03-04T01:49:49;53.42;;;20.83;;
34317;SDS011;20582;52.196;20.952;2023-03-04T01:52:17;58.40;;;22.27;;
34317;SDS011;20582;52.196;20.952;2023-03-04T01:54:43;53.83;;;22.48;;
34317;SDS011;20582;52.196;20.952;2023-03-04T01:57:22;52.40;;;19.52;;
34317;SDS011;20582;52.196;20.952;2023-03-04T02:02:33;51.88;;;19.30;;
34317;SDS011;20582;52.196;20.952;2023-03-04T02:04:59;52.92;;;20.77;;
34317;SDS011;20582;52.196;20.952;2023-03-04T02:07:25;49.00;;;19.30;;
34317;SDS011;20582;52.196;20.952;2023-03-04T02:09:51;49.90;;;20.83;;
34317;SDS011;20582;52.196;20.952;2023-03-04T02:12:17;54.45;;;20.77;;
34317;SDS011;20582;52.196;20.952;2023-03-04T02:14:43;52.35;;;20.20;;
34317;SDS011;20582;52.196;20.952;2023-03-04T02:17:10;52.63;;;21.00;;
34317;SDS011;20582;52.196;20.952;2023-03-04T02:19:54;47.33;;;19.58;;
34317;SDS011;20582;52.196;20.952;2023-03-04T02:22:21;51.75;;;20.38;;
34317;SDS011;20582;52.196;20.952;2023-03-04T02:24:48;50.03;;;20.58;;
34317;SDS011;20582;52.196;20.952;2023-03-04T02:27:17;47.03;;;19.17;;
34317;SDS011;20582;52.196;20.952;2023-03-04T02:29:43;50.67;;;19.65;;
34317;SDS011;20582;52.196;20.952;2023-03-04T02:32:12;49.03;;;19.50;;
34317;SDS011;20582;52.196;20.952;2023-03-04T02:34:40;48.85;;;20.55;;
34317;SDS011;20582;52.196;20.952;2023-03-04T02:37:08;48.85;;;19.30;;
34317;SDS011;20582;52.196;20.952;2023-03-04T02:39:38;46.28;;;19.77;;
34317;SDS011;20582;52.196;20.952;2023-03-04T02:42:05;51.30;;;20.58;;
34317;SDS011;20582;52.196;20.952;2023-03-04T02:44:32;46.60;;;18.08;;
34317;SDS011;20582;52.196;20.952;2023-03-04T02:46:59;48.25;;;19.30;;
34317;SDS011;20582;52.196;20.952;2023-03-04T02:49:27;47.42;;;20.77;;
34317;SDS011;20582;52.196;20.952;2023-03-04T02:54:36;45.15;;;19.60;;
34317;SDS011;20582;52.196;20.952;2023-03-04T02:57:03;46.42;;;19.63;;
34317;SDS011;20582;52.196;20.952;2023-03-04T02:59:29;50.60;;;20.55;;
34317;SDS011;20582;52.196;20.952;2023-03-04T03:01:56;51.08;;;22.23;;
34317;SDS011;20582;52.196;20.952;2023-03-04T03:04:22;52.88;;;20.13;;
34317;SDS011;20582;52.196;20.952;2023-03-04T03:06:49;49.38;;;20.45;;
34317;SDS011;20582;52.196;20.952;2023-03-04T03:09:15;50.38;;;21.38;;
34317;SDS011;20582;52.196;20.952;2023-03-04T03:11:41;50.85;;;20.88;;
34317;SDS011;20582;52.196;20.952;2023-03-04T03:14:07;51.35;;;22.05;;
34317;SDS011;20582;52.196;20.952;2023-03-04T03:16:34;49.47;;;22.67;;
34317;SDS011;20582;52.196;20.952;2023-03-04T03:19:00;52.70;;;22.30;;
34317;SDS011;20582;52.196;20.952;2023-03-04T03:21:26;47.78;;;21.17;;
34317;SDS011;20582;52.196;20.952;2023-03-04T03:23:52;50.35;;;22.38;;
34317;SDS011;20582;52.196;20.952;2023-03-04T03:26:18;48.70;;;20.45;;
34317;SDS011;20582;52.196;20.952;2023-03-04T03:28:44;51.97;;;22.38;;
34317;SDS011;20582;52.196;20.952;2023-03-04T03:31:10;50.53;;;20.40;;
34317;SDS011;20582;52.196;20.952;2023-03-04T03:33:36;48.55;;;21.40;;
34317;SDS011;20582;52.196;20.952;2023-03-04T03:36:02;44.65;;;20.58;;
34317;SDS011;20582;52.196;20.952;2023-03-04T03:38:28;46.88;;;20.90;;
34317;SDS011;20582;52.196;20.952;2023-03-04T03:40:54;54.75;;;22.27;;
34317;SDS011;20582;52.196;20.952;2023-03-04T03:43:21;48.70;;;22.17;;
34317;SDS011;20582;52.196;20.952;2023-03-04T03:45:47;49.13;;;21.83;;
34317;SDS011;20582;52.196;20.952;2023-03-04T03:48:13;45.42;;;21.20;;
34317;SDS011;20582;52.196;20.952;2023-03-04T03:50:39;48.05;;;21.38;;
34317;SDS011;20582;52.196;20.952;2023-03-04T03:53:05;50.28;;;22.10;;
34317;SDS011;20582;52.196;20.952;2023-03-04T03:55:31;48.35;;;21.27;;
34317;SDS011;20582;52.196;20.952;2023-03-04T03:57:58;41.13;;;18.25;;
34317;SDS011;20582;52.196;20.952;2023-03-04T04:00:24;47.70;;;21.05;;
34317;SDS011;20582;52.196;20.952;2023-03-04T04:02:51;47.65;;;20.58;;
34317;SDS011;20582;52.196;20.952;2023-03-04T04:05:17;49.17;;;21.73;;
34317;SDS011;20582;52.196;20.952;2023-03-04T04:07:43;46.85;;;21.77;;
34317;SDS011;20582;52.196;20.952;2023-03-04T04:10:09;45.60;;;21.58;;
34317;SDS011;20582;52.196;20.952;2023-03-04T04:12:35;49.40;;;21.73;;
34317;SDS011;20582;52.196;20.952;2023-03-04T04:15:01;45.65;;;20.63;;
34317;SDS011;20582;52.196;20.952;2023-03-04T04:17:27;43.13;;;20.48;;
34317;SDS011;20582;52.196;20.952;2023-03-04T04:19:53;42.58;;;19.60;;
34317;SDS011;20582;52.196;20.952;2023-03-04T04:22:20;48.08;;;20.25;;
34317;SDS011;20582;52.196;20.952;2023-03-04T04:24:46;44.75;;;20.77;;
34317;SDS011;20582;52.196;20.952;2023-03-04T04:27:12;45.47;;;20.45;;
34317;SDS011;20582;52.196;20.952;2023-03-04T04:29:39;45.78;;;21.55;;
34317;SDS011;20582;52.196;20.952;2023-03-04T04:32:05;42.30;;;19.25;;
34317;SDS011;20582;52.196;20.952;2023-03-04T04:34:31;44.45;;;19.42;;
34317;SDS011;20582;52.196;20.952;2023-03-04T04:36:57;46.45;;;20.98;;
34317;SDS011;20582;52.196;20.952;2023-03-04T04:39:23;45.97;;;21.40;;
34317;SDS011;20582;52.196;20.952;2023-03-04T04:41:49;47.60;;;21.88;;
34317;SDS011;20582;52.196;20.952;2023-03-04T04:44:15;43.15;;;19.73;;
34317;SDS011;20582;52.196;20.952;2023-03-04T04:46:41;43.67;;;20.48;;
34317;SDS011;20582;52.196;20.952;2023-03-04T04:49:07;43.83;;;20.10;;
34317;SDS011;20582;52.196;20.952;2023-03-04T04:51:33;43.90;;;20.38;;
34317;SDS011;20582;52.196;20.952;2023-03-04T04:54:00;42.95;;;20.42;;
34317;SDS011;20582;52.196;20.952;2023-03-04T04:56:26;44.55;;;20.92;;
34317;SDS011;20582;52.196;20.952;2023-03-04T04:58:53;43.80;;;18.30;;
34317;SDS011;20582;52.196;20.952;2023-03-04T05:01:19;44.25;;;19.88;;
34317;SDS011;20582;52.196;20.952;2023-03-04T05:03:45;45.17;;;18.92;;
34317;SDS011;20582;52.196;20.952;2023-03-04T05:06:13;39.70;;;17.95;;
34317;SDS011;20582;52.196;20.952;2023-03-04T05:08:39;42.72;;;19.42;;
34317;SDS011;20582;52.196;20.952;2023-03-04T05:11:06;39.03;;;18.60;;
34317;SDS011;20582;52.196;20.952;2023-03-04T05:13:33;41.28;;;19.98;;
34317;SDS011;20582;52.196;20.952;2023-03-04T05:15:59;45.22;;;19.67;;
34317;SDS011;20582;52.196;20.952;2023-03-04T05:18:25;41.63;;;19.35;;
34317;SDS011;20582;52.196;20.952;2023-03-04T05:20:55;39.15;;;18.13;;
34317;SDS011;20582;52.196;20.952;2023-03-04T05:23:22;40.75;;;19.10;;
34317;SDS011;20582;52.196;20.952;2023-03-04T05:25:48;39.72;;;19.05;;
34317;SDS011;20582;52.196;20.952;2023-03-04T05:28:14;39.35;;;19.33;;
34317;SDS011;20582;52.196;20.952;2023-03-04T05:30:41;38.20;;;17.40;;
34317;SDS011;20582;52.196;20.952;2023-03-04T05:33:08;36.65;;;17.95;;
34317;SDS011;20582;52.196;20.952;2023-03-04T05:35:35;36.42;;;17.95;;
34317;SDS011;20582;52.196;20.952;2023-03-04T05:38:04;39.20;;;18.73;;
34317;SDS011;20582;52.196;20.952;2023-03-04T05:40:31;39.25;;;17.55;;
34317;SDS011;20582;52.196;20.952;2023-03-04T05:42:57;38.05;;;18.77;;
34317;SDS011;20582;52.196;20.952;2023-03-04T05:45:23;37.45;;;18.92;;
34317;SDS011;20582;52.196;20.952;2023-03-04T05:47:49;37.65;;;17.77;;
34317;SDS011;20582;52.196;20.952;2023-03-04T05:50:15;37.70;;;17.48;;
34317;SDS011;20582;52.196;20.952;2023-03-04T05:52:41;37.47;;;17.90;;
34317;SDS011;20582;52.196;20.952;2023-03-04T05:55:07;36.40;;;18.23;;
34317;SDS011;20582;52.196;20.952;2023-03-04T05:57:33;39.22;;;18.02;;
34317;SDS011;20582;52.196;20.952;2023-03-04T05:59:59;37.88;;;17.55;;
34317;SDS011;20582;52.196;20.952;2023-03-04T06:02:25;36.67;;;17.23;;
34317;SDS011;20582;52.196;20.952;2023-03-04T06:04:51;35.53;;;17.30;;
34317;SDS011;20582;52.196;20.952;2023-03-04T06:07:17;37.20;;;18.05;;
34317;SDS011;20582;52.196;20.952;2023-03-04T06:09:43;36.60;;;18.33;;
34317;SDS011;20582;52.196;20.952;2023-03-04T06:12:10;40.75;;;17.00;;
34317;SDS011;20582;52.196;20.952;2023-03-04T06:14:36;35.92;;;17.42;;
34317;SDS011;20582;52.196;20.952;2023-03-04T06:17:02;36.08;;;17.45;;
34317;SDS011;20582;52.196;20.952;2023-03-04T06:19:28;36.78;;;17.80;;
34317;SDS011;20582;52.196;20.952;2023-03-04T06:21:54;36.83;;;17.33;;
34317;SDS011;20582;52.196;20.952;2023-03-04T06:24:20;37.08;;;18.42;;
34317;SDS011;20582;52.196;20.952;2023-03-04T06:26:46;36.38;;;18.05;;
34317;SDS011;20582;52.196;20.952;2023-03-04T06:29:12;39.60;;;19.00;;
34317;SDS011;20582;52.196;20.952;2023-03-04T06:31:38;41.70;;;19.95;;
34317;SDS011;20582;52.196;20.952;2023-03-04T06:34:06;37.47;;;18.85;;
34317;SDS011;20582;52.196;20.952;2023-03-04T06:36:32;37.75;;;18.77;;
34317;SDS011;20582;52.196;20.952;2023-03-04T06:38:58;38.97;;;18.25;;
34317;SDS011;20582;52.196;20.952;2023-03-04T06:41:24;41.38;;;17.95;;
34317;SDS011;20582;52.196;20.952;2023-03-04T06:43:52;41.63;;;18.77;;
34317;SDS011;20582;52.196;20.952;2023-03-04T06:46:18;38.40;;;17.15;;
34317;SDS011;20582;52.196;20.952;2023-03-04T06:48:44;38.03;;;18.40;;
34317;SDS011;20582;52.196;20.952;2023-03-04T06:51:10;38.65;;;17.40;;
34317;SDS011;20582;52.196;20.952;2023-03-04T06:53:36;38.40;;;17.58;;
34317;SDS011;20582;52.196;20.952;2023-03-04T06:56:02;34.97;;;18.10;;
34317;SDS011;20582;52.196;20.952;2023-03-04T06:58:28;41.80;;;19.40;;
34317;SDS011;20582;52.196;20.952;2023-03-04T07:00:54;33.40;;;16.67;;
34317;SDS011;20582;52.196;20.952;2023-03-04T07:03:20;36.05;;;18.23;;
34317;SDS011;20582;52.196;20.952;2023-03-04T07:05:47;39.67;;;18.42;;
34317;SDS011;20582;52.196;20.952;2023-03-04T07:08:13;38.05;;;17.15;;
34317;SDS011;20582;52.196;20.952;2023-03-04T07:10:39;37.10;;;17.45;;
34317;SDS011;20582;52.196;20.952;2023-03-04T07:13:05;35.00;;;16.73;;
34317;SDS011;20582;52.196;20.952;2023-03-04T07:15:31;34.72;;;16.42;;
34317;SDS011;20582;52.196;20.952;2023-03-04T07:17:57;37.78;;;18.13;;
34317;SDS011;20582;52.196;20.952;2023-03-04T07:20:23;33.90;;;17.25;;
34317;SDS011;20582;52.196;20.952;2023-03-04T07:22:49;35.03;;;17.17;;
34317;SDS011;20582;52.196;20.952;2023-03-04T07:25:15;35.58;;;16.23;;
34317;SDS011;20582;52.196;20.952;2023-03-04T07:27:42;37.38;;;17.35;;
34317;SDS011;20582;52.196;20.952;2023-03-04T07:30:08;33.25;;;15.90;;
34317;SDS011;20582;52.196;20.952;2023-03-04T07:32:35;35.47;;;16.90;;
34317;SDS011;20582;52.196;20.952;2023-03-04T07:35:01;35.05;;;16.50;;
34317;SDS011;20582;52.196;20.952;2023-03-04T07:37:28;32.00;;;15.68;;
34317;SDS011;20582;52.196;20.952;2023-03-04T07:39:54;34.22;;;16.58;;
34317;SDS011;20582;52.196;20.952;2023-03-04T07:42:20;32.15;;;15.25;;
34317;SDS011;20582;52.196;20.952;2023-03-04T07:44:46;38.08;;;17.10;;
34317;SDS011;20582;52.196;20.952;2023-03-04T07:47:12;37.75;;;17.05;;
34317;SDS011;20582;52.196;20.952;2023-03-04T07:49:38;34.75;;;16.48;;
34317;SDS011;20582;52.196;20.952;2023-03-04T07:52:04;32.33;;;16.73;;
34317;SDS011;20582;52.196;20.952;2023-03-04T07:54:30;33.92;;;15.55;;
34317;SDS011;20582;52.196;20.952;2023-03-04T07:56:56;32.55;;;15.82;;
34317;SDS011;20582;52.196;20.952;2023-03-04T07:59:22;36.03;;;16.35;;
34317;SDS011;20582;52.196;20.952;2023-03-04T08:01:48;31.38;;;15.45;;
34317;SDS011;20582;52.196;20.952;2023-03-04T08:04:14;27.45;;;14.40;;
34317;SDS011;20582;52.196;20.952;2023-03-04T08:06:40;32.83;;;15.18;;
34317;SDS011;20582;52.196;20.952;2023-03-04T08:09:07;29.60;;;15.30;;
34317;SDS011;20582;52.196;20.952;2023-03-04T08:11:34;30.65;;;15.65;;
34317;SDS011;20582;52.196;20.952;2023-03-04T08:14:00;30.00;;;14.80;;
34317;SDS011;20582;52.196;20.952;2023-03-04T08:16:26;34.00;;;14.90;;
34317;SDS011;20582;52.196;20.952;2023-03-04T08:18:54;31.50;;;14.93;;
34317;SDS011;20582;52.196;20.952;2023-03-04T08:21:21;32.75;;;15.82;;
34317;SDS011;20582;52.196;20.952;2023-03-04T08:23:47;31.85;;;14.65;;
34317;SDS011;20582;52.196;20.952;2023-03-04T08:26:16;33.22;;;15.18;;
34317;SDS011;20582;52.196;20.952;2023-03-04T08:28:42;32.13;;;16.42;;
34317;SDS011;20582;52.196;20.952;2023-03-04T08:31:09;36.67;;;15.27;;
34317;SDS011;20582;52.196;20.952;2023-03-04T08:33:35;34.40;;;16.00;;
34317;SDS011;20582;52.196;20.952;2023-03-04T08:36:01;35.00;;;15.75;;
34317;SDS011;20582;52.196;20.952;2023-03-04T08:38:27;36.28;;;15.90;;
34317;SDS011;20582;52.196;20.952;2023-03-04T08:40:56;31.00;;;14.75;;
34317;SDS011;20582;52.196;20.952;2023-03-04T08:43:22;33.65;;;15.70;;
34317;SDS011;20582;52.196;20.952;2023-03-04T08:45:49;32.85;;;15.52;;
34317;SDS011;20582;52.196;20.952;2023-03-04T08:48:15;33.08;;;15.63;;
34317;SDS011;20582;52.196;20.952;2023-03-04T08:50:42;30.27;;;14.63;;
34317;SDS011;20582;52.196;20.952;2023-03-04T08:53:08;32.25;;;15.57;;
34317;SDS011;20582;52.196;20.952;2023-03-04T08:55:36;32.67;;;16.60;;
34317;SDS011;20582;52.196;20.952;2023-03-04T08:58:02;30.50;;;15.55;;
34317;SDS011;20582;52.196;20.952;2023-03-04T09:00:28;30.25;;;14.10;;
34317;SDS011;20582;52.196;20.952;2023-03-04T09:02:54;38.53;;;14.95;;
34317;SDS011;20582;52.196;20.952;2023-03-04T09:05:20;33.17;;;15.05;;
34317;SDS011;20582;52.196;20.952;2023-03-04T09:07:46;33.05;;;15.77;;
34317;SDS011;20582;52.196;20.952;2023-03-04T09:10:12;35.42;;;15.55;;
34317;SDS011;20582;52.196;20.952;2023-03-04T09:12:38;31.77;;;16.17;;
34317;SDS011;20582;52.196;20.952;2023-03-04T09:15:04;28.10;;;14.15;;
34317;SDS011;20582;52.196;20.952;2023-03-04T09:17:31;31.70;;;14.25;;
34317;SDS011;20582;52.196;20.952;2023-03-04T09:19:57;31.98;;;15.10;;
34317;SDS011;20582;52.196;20.952;2023-03-04T09:22:23;30.08;;;14.13;;
34317;SDS011;20582;52.196;20.952;2023-03-04T09:24:49;31.88;;;14.90;;
34317;SDS011;20582;52.196;20.952;2023-03-04T09:27:15;32.97;;;14.77;;
34317;SDS011;20582;52.196;20.952;2023-03-04T09:29:41;29.65;;;14.57;;
34317;SDS011;20582;52.196;20.952;2023-03-04T09:32:08;28.58;;;13.18;;
34317;SDS011;20582;52.196;20.952;2023-03-04T09:34:34;28.27;;;13.50;;
34317;SDS011;20582;52.196;20.952;2023-03-04T09:37:00;28.00;;;13.35;;
34317;SDS011;20582;52.196;20.952;2023-03-04T09:39:26;29.63;;;13.30;;
34317;SDS011;20582;52.196;20.952;2023-03-04T09:41:53;33.45;;;13.75;;
34317;SDS011;20582;52.196;20.952;2023-03-04T09:46:47;39.10;;;15.25;;
34317;SDS011;20582;52.196;20.952;2023-03-04T09:49:14;30.65;;;13.85;;
34317;SDS011;20582;52.196;20.952;2023-03-04T09:51:43;32.17;;;14.23;;
34317;SDS011;20582;52.196;20.952;2023-03-04T09:54:26;30.98;;;13.10;;
34317;SDS011;20582;52.196;20.952;2023-03-04T09:56:59;29.52;;;13.32;;
34317;SDS011;20582;52.196;20.952;2023-03-04T09:59:31;26.83;;;13.00;;
34317;SDS011;20582;52.196;20.952;2023-03-04T10:02:06;31.48;;;13.55;;
34317;SDS011;20582;52.196;20.952;2023-03-04T10:04:39;29.90;;;11.85;;
34317;SDS011;20582;52.196;20.952;2023-03-04T10:07:12;30.45;;;12.90;;
34317;SDS011;20582;52.196;20.952;2023-03-04T10:09:48;27.17;;;12.45;;
34317;SDS011;20582;52.196;20.952;2023-03-04T10:12:16;25.83;;;12.75;;
34317;SDS011;20582;52.196;20.952;2023-03-04T10:17:18;25.30;;;12.35;;
34317;SDS011;20582;52.196;20.952;2023-03-04T10:22:14;26.48;;;12.70;;
34317;SDS011;20582;52.196;20.952;2023-03-04T10:24:41;28.42;;;13.55;;
34317;SDS011;20582;52.196;20.952;2023-03-04T10:27:11;32.08;;;13.20;;
34317;SDS011;20582;52.196;20.952;2023-03-04T10:29:39;32.33;;;13.65;;
34317;SDS011;20582;52.196;20.952;2023-03-04T10:32:06;33.33;;;13.70;;
34317;SDS011;20582;52.196;20.952;2023-03-04T10:34:33;28.35;;;12.30;;
34317;SDS011;20582;52.196;20.952;2023-03-04T10:37:03;28.02;;;12.73;;
34317;SDS011;20582;52.196;20.952;2023-03-04T10:39:33;28.40;;;11.95;;
34317;SDS011;20582;52.196;20.952;2023-03-04T10:42:00;32.85;;;13.25;;
34317;SDS011;20582;52.196;20.952;2023-03-04T10:44:27;29.73;;;13.45;;
34317;SDS011;20582;52.196;20.952;2023-03-04T10:46:54;31.58;;;13.73;;
34317;SDS011;20582;52.196;20.952;2023-03-04T10:49:20;32.85;;;13.10;;
34317;SDS011;20582;52.196;20.952;2023-03-04T10:52:02;31.63;;;13.70;;
34317;SDS011;20582;52.196;20.952;2023-03-04T10:54:39;30.38;;;13.50;;
34317;SDS011;20582;52.196;20.952;2023-03-04T10:59:57;29.98;;;13.73;;
34317;SDS011;20582;52.196;20.952;2023-03-04T11:02:34;31.17;;;13.77;;
34317;SDS011;20582;52.196;20.952;2023-03-04T11:07:35;29.60;;;13.77;;
34317;SDS011;20582;52.196;20.952;2023-03-04T11:10:21;28.77;;;13.32;;
34317;SDS011;20582;52.196;20.952;2023-03-04T11:12:51;29.65;;;12.60;;
34317;SDS011;20582;52.196;20.952;2023-03-04T11:15:21;26.98;;;12.30;;
34317;SDS011;20582;52.196;20.952;2023-03-04T11:18:02;36.13;;;13.60;;
34317;SDS011;20582;52.196;20.952;2023-03-04T11:20:33;30.98;;;13.50;;
34317;SDS011;20582;52.196;20.952;2023-03-04T11:23:03;28.55;;;12.35;;
34317;SDS011;20582;52.196;20.952;2023-03-04T11:28:01;26.90;;;12.45;;
34317;SDS011;20582;52.196;20.952;2023-03-04T11:33:04;32.75;;;11.68;;
34317;SDS011;20582;52.196;20.952;2023-03-04T11:35:35;27.23;;;12.52;;
34317;SDS011;20582;52.196;20.952;2023-03-04T11:40:44;28.92;;;13.38;;
34317;SDS011;20582;52.196;20.952;2023-03-04T11:43:12;28.38;;;12.80;;
34317;SDS011;20582;52.196;20.952;2023-03-04T11:48:41;28.42;;;12.95;;
34317;SDS011;20582;52.196;20.952;2023-03-04T11:53:36;28.73;;;14.30;;
34317;SDS011;20582;52.196;20.952;2023-03-04T12:09:21;25.80;;;12.90;;
34317;SDS011;20582;52.196;20.952;2023-03-04T12:19:25;32.63;;;15.18;;
34317;SDS011;20582;52.196;20.952;2023-03-04T12:30:00;34.47;;;14.32;;
34317;SDS011;20582;52.196;20.952;2023-03-04T12:37:55;35.72;;;15.35;;
34317;SDS011;20582;52.196;20.952;2023-03-04T12:40:25;39.75;;;16.08;;
34317;SDS011;20582;52.196;20.952;2023-03-04T12:48:07;29.58;;;15.07;;
34317;SDS011;20582;52.196;20.952;2023-03-04T12:55:44;25.00;;;11.68;;
34317;SDS011;20582;52.196;20.952;2023-03-04T12:58:22;28.23;;;13.25;;
34317;SDS011;20582;52.196;20.952;2023-03-04T13:00:51;25.92;;;11.88;;
34317;SDS011;20582;52.196;20.952;2023-03-04T13:03:26;26.77;;;13.82;;
34317;SDS011;20582;52.196;20.952;2023-03-04T13:08:55;26.48;;;12.05;;
34317;SDS011;20582;52.196;20.952;2023-03-04T13:14:05;21.63;;;11.63;;
34317;SDS011;20582;52.196;20.952;2023-03-04T13:16:35;21.02;;;10.98;;
34317;SDS011;20582;52.196;20.952;2023-03-04T13:19:40;22.33;;;10.07;;
34317;SDS011;20582;52.196;20.952;2023-03-04T13:21:49;20.63;;;10.13;;
34317;SDS011;20582;52.196;20.952;2023-03-04T13:27:43;21.77;;;11.13;;
34317;SDS011;20582;52.196;20.952;2023-03-04T13:29:49;25.00;;;10.65;;
34317;SDS011;20582;52.196;20.952;2023-03-04T13:32:24;22.65;;;11.32;;
34317;SDS011;20582;52.196;20.952;2023-03-04T13:34:59;24.85;;;11.80;;
34317;SDS011;20582;52.196;20.952;2023-03-04T13:37:29;21.10;;;12.02;;
34317;SDS011;20582;52.196;20.952;2023-03-04T13:42:41;23.50;;;11.23;;
34317;SDS011;20582;52.196;20.952;2023-03-04T13:45:27;23.80;;;10.82;;
34317;SDS011;20582;52.196;20.952;2023-03-04T13:47:53;21.98;;;10.95;;
34317;SDS011;20582;52.196;20.952;2023-03-04T13:50:21;20.90;;;9.93;;
34317;SDS011;20582;52.196;20.952;2023-03-04T13:52:47;21.83;;;9.95;;
34317;SDS011;20582;52.196;20.952;2023-03-04T13:57:58;16.10;;;7.68;;
34317;SDS011;20582;52.196;20.952;2023-03-04T14:00:24;15.18;;;8.32;;
34317;SDS011;20582;52.196;20.952;2023-03-04T14:02:51;14.30;;;7.88;;
34317;SDS011;20582;52.196;20.952;2023-03-04T14:05:17;12.88;;;5.43;;
34317;SDS011;20582;52.196;20.952;2023-03-04T14:07:43;12.73;;;6.05;;
34317;SDS011;20582;52.196;20.952;2023-03-04T14:15:26;13.82;;;4.32;;
34317;SDS011;20582;52.196;20.952;2023-03-04T14:17:54;8.85;;;3.70;;
34317;SDS011;20582;52.196;20.952;2023-03-04T14:20:36;11.63;;;3.53;;
34317;SDS011;20582;52.196;20.952;2023-03-04T14:23:03;8.38;;;3.63;;
34317;SDS011;20582;52.196;20.952;2023-03-04T14:25:31;10.02;;;3.63;;
34317;SDS011;20582;52.196;20.952;2023-03-04T14:28:01;8.45;;;3.13;;
34317;SDS011;20582;52.196;20.952;2023-03-04T14:30:30;12.98;;;3.72;;
34317;SDS011;20582;52.196;20.952;2023-03-04T14:32:56;9.52;;;3.20;;
34317;SDS011;20582;52.196;20.952;2023-03-04T14:35:24;10.27;;;2.95;;
34317;SDS011;20582;52.196;20.952;2023-03-04T14:40:31;9.95;;;3.13;;
34317;SDS011;20582;52.196;20.952;2023-03-04T14:43:01;6.88;;;3.00;;
34317;SDS011;20582;52.196;20.952;2023-03-04T14:45:29;8.48;;;3.30;;
34317;SDS011;20582;52.196;20.952;2023-03-04T14:47:56;8.43;;;2.95;;
34317;SDS011;20582;52.196;20.952;2023-03-04T14:50:23;8.20;;;3.00;;
34317;SDS011;20582;52.196;20.952;2023-03-04T14:53:02;10.13;;;3.10;;
34317;SDS011;20582;52.196;20.952;2023-03-04T14:55:28;9.60;;;3.15;;
34317;SDS011;20582;52.196;20.952;2023-03-04T15:00:39;8.43;;;2.85;;
34317;SDS011;20582;52.196;20.952;2023-03-04T15:05:32;8.02;;;2.60;;
34317;SDS011;20582;52.196;20.952;2023-03-04T15:07:59;8.80;;;3.00;;
34317;SDS011;20582;52.196;20.952;2023-03-04T15:10:35;8.43;;;2.92;;
34317;SDS011;20582;52.196;20.952;2023-03-04T15:13:03;9.65;;;3.20;;
34317;SDS011;20582;52.196;20.952;2023-03-04T15:18:00;10.52;;;3.20;;
34317;SDS011;20582;52.196;20.952;2023-03-04T15:20:27;7.40;;;3.03;;
34317;SDS011;20582;52.196;20.952;2023-03-04T15:25:19;8.30;;;2.83;;
34317;SDS011;20582;52.196;20.952;2023-03-04T15:27:45;6.47;;;2.40;;
34317;SDS011;20582;52.196;20.952;2023-03-04T15:30:18;8.45;;;2.30;;
34317;SDS011;20582;52.196;20.952;2023-03-04T15:32:45;5.93;;;2.17;;
34317;SDS011;20582;52.196;20.952;2023-03-04T15:35:12;7.63;;;2.28;;
34317;SDS011;20582;52.196;20.952;2023-03-04T15:37:38;6.22;;;1.98;;
34317;SDS011;20582;52.196;20.952;2023-03-04T15:40:05;6.97;;;2.05;;
34317;SDS011;20582;52.196;20.952;2023-03-04T15:42:32;6.90;;;1.70;;
34317;SDS011;20582;52.196;20.952;2023-03-04T15:44:58;5.75;;;2.00;;
34317;SDS011;20582;52.196;20.952;2023-03-04T15:47:24;3.88;;;1.67;;
34317;SDS011;20582;52.196;20.952;2023-03-04T15:49:50;6.00;;;2.20;;
34317;SDS011;20582;52.196;20.952;2023-03-04T15:52:18;6.15;;;2.08;;
34317;SDS011;20582;52.196;20.952;2023-03-04T15:54:45;5.35;;;1.60;;
34317;SDS011;20582;52.196;20.952;2023-03-04T15:57:33;5.88;;;1.60;;
34317;SDS011;20582;52.196;20.952;2023-03-04T15:59:58;4.93;;;1.73;;